createdAt,value
2023-05-20T00:04:42.856Z,5.13
2023-05-20T00:09:52.267Z,4.17
2023-05-20T00:15:00.918Z,5.73
2023-05-20T00:20:10.522Z,6.00
2023-05-20T00:25:19.715Z,5.83
2023-05-20T00:30:29.502Z,6.97
2023-05-20T00:35:39.124Z,5.83
2023-05-20T00:40:52.817Z,6.27
2023-05-20T00:46:02.181Z,6.17
2023-05-20T00:51:11.042Z,8.30
2023-05-20T00:56:19.532Z,6.33
2023-05-20T01:01:28.544Z,6.67
2023-05-20T01:06:38.654Z,5.03
2023-05-20T01:11:49.787Z,10.57
2023-05-20T01:17:00.011Z,6.23
2023-05-20T01:22:12.225Z,5.73
2023-05-20T01:27:25.247Z,6.17
2023-05-20T01:32:38.923Z,5.13
2023-05-20T01:37:48.672Z,7.40
2023-05-20T01:42:57.804Z,5.43
2023-05-20T01:48:06.228Z,5.33
2023-05-20T01:53:15.895Z,6.23
2023-05-20T01:58:25.740Z,4.33
2023-05-20T02:03:34.434Z,5.97
2023-05-20T02:08:45.533Z,4.93
2023-05-20T02:13:53.495Z,4.77
2023-05-20T02:19:03.307Z,5.57
2023-05-20T02:24:11.865Z,7.33
2023-05-20T02:29:22.893Z,5.00
2023-05-20T02:34:32.044Z,4.77
2023-05-20T02:39:39.747Z,4.50
2023-05-20T02:44:48.354Z,5.73
2023-05-20T02:49:58.109Z,6.87
2023-05-20T02:55:10.454Z,7.00
2023-05-20T03:00:19.499Z,5.03
2023-05-20T03:05:28.080Z,4.57
2023-05-20T03:10:38.019Z,4.80
2023-05-20T03:15:47.077Z,4.90
2023-05-20T03:20:55.260Z,6.87
2023-05-20T03:26:05.184Z,5.83
2023-05-20T03:31:14.935Z,5.40
2023-05-20T03:36:23.209Z,4.77
2023-05-20T03:41:37.048Z,4.63
2023-05-20T03:46:50.166Z,5.00
2023-05-20T03:51:58.446Z,6.13
2023-05-20T03:57:07.279Z,5.47
2023-05-20T04:02:16.700Z,4.30
2023-05-20T04:07:25.320Z,4.70
2023-05-20T04:12:34.776Z,7.03
2023-05-20T04:17:44.203Z,11.23
2023-05-20T04:22:56.393Z,6.07
2023-05-20T04:28:05.937Z,6.53
2023-05-20T04:33:19.157Z,6.23
2023-05-20T04:38:30.790Z,5.93
2023-05-20T04:43:40.866Z,7.10
2023-05-20T04:48:49.729Z,8.80
2023-05-20T04:53:59.424Z,8.37
2023-05-20T04:59:10.231Z,9.93
2023-05-20T05:04:19.560Z,9.60
2023-05-20T05:09:29.022Z,12.80
2023-05-20T05:14:39.000Z,12.30
2023-05-20T05:19:51.481Z,9.50
2023-05-20T05:25:01.185Z,15.13
2023-05-20T05:30:10.167Z,8.77
2023-05-20T05:35:18.459Z,8.13
2023-05-20T05:40:27.408Z,8.30
2023-05-20T05:45:36.194Z,21.57
2023-05-20T05:50:46.986Z,10.33
2023-05-20T05:55:56.424Z,16.33
2023-05-20T06:01:05.320Z,9.33
2023-05-20T06:06:17.046Z,11.20
2023-05-20T06:11:27.651Z,6.60
2023-05-20T06:16:38.932Z,5.43
2023-05-20T06:21:49.655Z,7.53
2023-05-20T06:27:00.641Z,6.27
2023-05-20T06:32:11.113Z,5.83
2023-05-20T06:37:23.703Z,5.53
2023-05-20T06:42:33.075Z,5.83
2023-05-20T06:47:44.748Z,5.67
2023-05-20T06:52:54.303Z,4.93
2023-05-20T06:58:06.046Z,5.30
2023-05-20T07:03:15.256Z,5.97
2023-05-20T07:08:25.887Z,4.43
2023-05-20T07:13:35.244Z,5.10
2023-05-20T07:18:44.048Z,6.33
2023-05-20T07:23:53.635Z,4.67
2023-05-20T07:29:05.427Z,4.57
2023-05-20T07:34:14.129Z,4.47
2023-05-20T07:39:24.818Z,6.00
2023-05-20T07:44:35.309Z,5.67
2023-05-20T07:49:51.195Z,4.83
2023-05-20T07:55:00.049Z,6.50
2023-05-20T08:00:10.335Z,5.13
2023-05-20T08:05:20.169Z,5.57
2023-05-20T08:10:29.549Z,6.57
2023-05-20T08:15:39.863Z,5.10
2023-05-20T08:20:49.901Z,4.67
2023-05-20T08:26:00.481Z,7.53
2023-05-20T08:31:10.956Z,5.03
2023-05-20T08:36:25.261Z,4.80
2023-05-20T08:41:40.150Z,3.97
2023-05-20T08:46:50.571Z,5.07
2023-05-20T08:52:05.478Z,4.37
2023-05-20T08:57:18.966Z,5.13
2023-05-20T09:02:28.270Z,4.67
2023-05-20T09:07:38.848Z,4.90
2023-05-20T09:12:49.600Z,4.33
2023-05-20T09:17:59.897Z,4.23
2023-05-20T09:23:13.344Z,4.30
2023-05-20T09:28:34.132Z,4.10
2023-05-20T09:33:53.988Z,4.30
2023-05-20T09:39:06.706Z,5.63
2023-05-20T09:44:17.382Z,5.63
2023-05-20T09:49:32.815Z,4.83
2023-05-20T09:54:43.717Z,5.03
2023-05-20T09:59:55.674Z,3.10
2023-05-20T10:05:10.310Z,5.63
2023-05-20T10:10:24.633Z,3.30
2023-05-20T10:15:35.496Z,11.23
2023-05-20T10:20:47.960Z,5.90
2023-05-20T10:25:58.758Z,4.60
2023-05-20T10:31:09.236Z,3.30
2023-05-20T10:36:19.349Z,4.73
2023-05-20T10:41:29.462Z,3.90
2023-05-20T10:46:48.762Z,4.50
2023-05-20T10:51:49.824Z,4.10
2023-05-20T10:56:58.906Z,4.67
2023-05-20T11:02:07.772Z,5.93
2023-05-20T11:07:22.092Z,5.03
2023-05-20T11:12:31.189Z,5.00
2023-05-20T11:17:39.766Z,5.17
2023-05-20T11:22:49.196Z,5.27
2023-05-20T11:27:57.937Z,5.13
2023-05-20T11:33:09.094Z,5.00
2023-05-20T11:38:19.061Z,6.47
2023-05-20T11:43:28.780Z,6.17
2023-05-20T11:48:37.197Z,5.57
2023-05-20T11:53:47.969Z,5.03
2023-05-20T11:59:02.041Z,5.37
2023-05-20T12:04:15.139Z,5.07
2023-05-20T12:09:33.469Z,5.43
2023-05-20T12:14:43.774Z,5.77
2023-05-20T12:19:51.833Z,5.97
2023-05-20T12:25:01.269Z,7.83
2023-05-20T12:30:13.735Z,6.63
2023-05-20T12:35:24.591Z,6.40
2023-05-20T12:40:34.565Z,7.27
2023-05-20T12:45:43.715Z,7.00
2023-05-20T12:50:52.548Z,6.60
2023-05-20T12:56:02.092Z,7.00
2023-05-20T13:01:10.833Z,6.07
2023-05-20T13:06:19.942Z,6.53
2023-05-20T13:11:29.025Z,6.70
2023-05-20T13:16:39.155Z,5.97
2023-05-20T13:21:49.546Z,8.40
2023-05-20T13:26:59.935Z,9.40
2023-05-20T13:32:09.251Z,10.03
2023-05-20T13:37:19.088Z,7.07
2023-05-20T13:42:27.277Z,6.07
2023-05-20T13:47:35.991Z,6.57
2023-05-20T13:52:49.739Z,8.70
2023-05-20T14:03:20.339Z,10.53
2023-05-20T14:08:33.868Z,7.10
2023-05-20T14:13:42.070Z,8.30
2023-05-20T14:18:50.670Z,6.47
2023-05-20T14:23:59.868Z,5.90
2023-05-20T14:29:08.493Z,6.47
2023-05-20T14:34:16.887Z,6.17
2023-05-20T14:39:37.305Z,6.27
2023-05-20T14:44:55.265Z,6.67
2023-05-20T14:50:04.693Z,6.13
2023-05-20T14:55:14.198Z,8.10
2023-05-20T15:00:23.452Z,6.63
2023-05-20T15:05:34.136Z,7.17
2023-05-20T15:10:43.192Z,7.13
2023-05-20T15:15:52.352Z,6.57
2023-05-20T15:21:01.422Z,9.10
2023-05-20T15:26:15.325Z,6.53
2023-05-20T15:31:24.985Z,6.40
2023-05-20T15:36:35.893Z,6.80
2023-05-20T15:41:44.404Z,6.47
2023-05-20T15:52:18.039Z,5.73
2023-05-20T15:57:35.241Z,7.37
2023-05-20T16:02:49.904Z,7.53
2023-05-20T16:08:00.908Z,8.27
2023-05-20T16:13:10.812Z,7.63
2023-05-20T16:18:23.455Z,6.80
2023-05-20T16:23:31.601Z,7.47
2023-05-20T16:28:41.083Z,9.83
2023-05-20T16:33:54.464Z,6.30
2023-05-20T16:39:07.939Z,7.47
2023-05-20T16:44:17.902Z,8.10
2023-05-20T16:49:28.858Z,9.97
2023-05-20T16:54:42.593Z,7.17
2023-05-20T16:59:56.370Z,8.53
2023-05-20T17:05:05.947Z,10.70
2023-05-20T17:10:19.417Z,8.13
2023-05-20T17:15:28.138Z,11.83
2023-05-20T17:20:39.178Z,10.40
2023-05-20T17:25:47.996Z,9.13
2023-05-20T17:30:57.202Z,9.27
2023-05-20T17:36:06.977Z,9.83
2023-05-20T17:41:19.921Z,14.77
2023-05-20T17:46:31.051Z,35.23
2023-05-20T17:51:40.992Z,11.53
2023-05-20T17:56:51.778Z,15.93
2023-05-20T18:02:08.606Z,22.43
2023-05-20T18:07:18.745Z,16.23
2023-05-20T18:12:28.276Z,11.73
2023-05-20T18:17:40.549Z,12.93
2023-05-20T18:22:51.130Z,11.20
2023-05-20T18:28:01.853Z,12.17
2023-05-20T18:33:12.006Z,10.63
2023-05-20T18:38:21.271Z,11.67
2023-05-20T18:43:35.971Z,12.83
2023-05-20T18:48:46.578Z,10.97
2023-05-20T18:53:58.434Z,10.77
2023-05-20T18:59:08.027Z,14.17
2023-05-20T19:04:21.295Z,10.27
2023-05-20T19:09:29.620Z,11.13
2023-05-20T19:14:38.833Z,12.87
2023-05-20T19:19:47.874Z,15.77
2023-05-20T19:24:57.996Z,11.67
2023-05-20T19:30:11.033Z,16.47
2023-05-20T19:35:21.423Z,13.73
2023-05-20T19:40:31.444Z,15.37
2023-05-20T19:45:43.129Z,12.10
2023-05-20T19:50:55.112Z,13.03
2023-05-20T19:56:04.260Z,15.40
2023-05-20T20:01:17.022Z,13.10
2023-05-20T20:06:27.260Z,21.37
2023-05-20T20:11:36.721Z,14.97
2023-05-20T20:16:50.333Z,12.03
2023-05-20T20:22:00.884Z,12.77
2023-05-20T20:27:12.759Z,23.37
2023-05-20T20:32:22.307Z,17.73
2023-05-20T20:37:31.738Z,12.57
2023-05-20T20:42:45.189Z,12.80
2023-05-20T20:48:01.898Z,13.50
2023-05-20T20:53:09.936Z,12.77
2023-05-20T20:58:18.495Z,13.57
2023-05-20T21:03:27.312Z,14.07
2023-05-20T21:08:37.275Z,10.83
2023-05-20T21:13:48.441Z,8.67
2023-05-20T21:19:01.631Z,14.20
2023-05-20T21:24:12.688Z,11.63
2023-05-20T21:29:21.661Z,12.10
2023-05-20T21:34:31.205Z,15.87
2023-05-20T21:39:42.400Z,10.03
2023-05-20T21:44:51.312Z,8.83
2023-05-20T21:50:05.399Z,9.60
2023-05-20T21:55:19.033Z,9.03
2023-05-20T22:00:27.775Z,11.87
2023-05-20T22:05:36.241Z,14.57
2023-05-20T22:10:46.005Z,14.17
2023-05-20T22:15:57.184Z,18.53
2023-05-20T22:21:06.913Z,16.40
2023-05-20T22:26:17.446Z,15.30
2023-05-20T22:31:28.708Z,13.37
2023-05-20T22:36:37.988Z,13.60
2023-05-20T22:41:47.827Z,13.60
2023-05-20T22:46:55.563Z,13.03
2023-05-20T22:52:04.356Z,13.73
2023-05-20T22:57:13.461Z,16.00
2023-05-20T23:02:23.204Z,17.37
2023-05-20T23:07:33.821Z,17.13
2023-05-20T23:12:44.564Z,15.57
2023-05-20T23:17:53.684Z,14.63
2023-05-20T23:23:11.253Z,14.37
2023-05-20T23:28:16.460Z,13.57
2023-05-20T23:33:30.505Z,16.57
2023-05-20T23:38:39.564Z,20.00
2023-05-20T23:43:48.988Z,17.27
2023-05-20T23:48:56.643Z,17.57
2023-05-20T23:54:04.389Z,16.03
2023-05-20T23:59:12.458Z,12.00
